Time;durP1;ratioP1;P1;durP2;ratioP2;P2;SDS_P1;SDS_P2;PMS_P1;PMS_P2;Temp;Humidity;BMP_temperature;BMP_pressure;BME280_temperature;BME280_humidity;BME280_pressure;Samples;Min_cycle;Max_cycle;Signal;HPM_P1;HPM_P2
2022/12/20 00:00:59;;;;;;;12.67;8.17;;;5.60;99.90;;;;;;5044382;28;20231;-77
2022/12/20 00:03:27;;;;;;;10.90;8.10;;;5.60;99.90;;;;;;5038426;28;20239;-78
2022/12/20 00:05:54;;;;;;;9.80;7.57;;;5.60;99.90;;;;;;5043370;28;20239;-79
2022/12/20 00:08:20;;;;;;;10.50;8.30;;;5.60;99.90;;;;;;5037123;28;20815;-77
2022/12/20 00:10:47;;;;;;;12.27;8.47;;;5.60;99.90;;;;;;5040593;28;21009;-78
2022/12/20 00:13:14;;;;;;;10.97;7.53;;;5.60;99.90;;;;;;5041677;28;20231;-78
2022/12/20 00:15:40;;;;;;;10.10;7.60;;;5.70;99.90;;;;;;5039708;28;20219;-78
2022/12/20 00:18:07;;;;;;;11.43;7.97;;;5.70;99.90;;;;;;5040996;28;20223;-78
2022/12/20 00:20:35;;;;;;;10.83;8.47;;;5.70;99.90;;;;;;5043252;28;20229;-77
2022/12/20 00:23:02;;;;;;;11.77;7.83;;;5.80;99.90;;;;;;5041747;28;21004;-77
2022/12/20 00:25:29;;;;;;;12.10;8.33;;;5.80;99.90;;;;;;5038304;28;20227;-77
2022/12/20 00:27:56;;;;;;;10.80;7.67;;;5.80;99.90;;;;;;5044449;28;20229;-77
2022/12/20 00:30:23;;;;;;;10.97;7.70;;;5.80;99.90;;;;;;5030546;28;20233;-77
2022/12/20 00:32:50;;;;;;;11.47;7.87;;;5.90;99.90;;;;;;5041727;28;20228;-77
2022/12/20 00:35:17;;;;;;;11.37;7.80;;;5.90;99.90;;;;;;5037305;28;20234;-78
2022/12/20 00:37:45;;;;;;;10.97;7.43;;;5.90;99.90;;;;;;5037084;28;20289;-77
2022/12/20 00:40:11;;;;;;;12.33;7.53;;;5.90;99.90;;;;;;5029593;28;20233;-78
2022/12/20 00:42:38;;;;;;;11.10;7.70;;;5.90;99.90;;;;;;5034422;28;20224;-78
2022/12/20 00:45:05;;;;;;;9.63;7.10;;;5.90;99.90;;;;;;5030104;28;20247;-78
2022/12/20 00:47:32;;;;;;;11.80;8.07;;;5.90;99.90;;;;;;5038938;28;20310;-77
2022/12/20 00:49:59;;;;;;;11.40;8.10;;;5.90;99.90;;;;;;5024820;28;20229;-78
2022/12/20 00:52:26;;;;;;;9.57;7.33;;;6.00;99.90;;;;;;5029146;28;20228;-78
2022/12/20 00:54:54;;;;;;;10.97;7.70;;;6.00;99.90;;;;;;5030214;28;20341;-78
2022/12/20 00:57:21;;;;;;;9.57;7.60;;;6.00;99.90;;;;;;5039577;28;20229;-78
2022/12/20 00:59:48;;;;;;;9.70;7.30;;;6.00;99.90;;;;;;5041218;28;20223;-77
2022/12/20 01:02:15;;;;;;;10.57;7.13;;;6.10;99.90;;;;;;5039161;28;20308;-78
2022/12/20 01:04:42;;;;;;;10.23;7.30;;;6.10;99.90;;;;;;5038158;28;20229;-78
2022/12/20 01:07:11;;;;;;;11.00;7.00;;;6.10;99.90;;;;;;5039351;28;20298;-78
2022/12/20 01:09:40;;;;;;;9.93;7.40;;;6.10;99.90;;;;;;5045570;28;20227;-77
2022/12/20 01:12:08;;;;;;;9.33;7.00;;;6.10;99.90;;;;;;5034026;28;20221;-77
2022/12/20 01:14:37;;;;;;;10.43;7.27;;;6.10;99.90;;;;;;5032822;28;20232;-78
2022/12/20 01:17:03;;;;;;;10.73;7.63;;;6.10;99.90;;;;;;5043038;28;20220;-78
2022/12/20 01:19:30;;;;;;;14.13;7.13;;;6.10;99.90;;;;;;5032552;28;20238;-78
2022/12/20 01:21:57;;;;;;;10.63;6.87;;;6.10;99.90;;;;;;5036424;28;20673;-78
2022/12/20 01:24:23;;;;;;;9.13;7.23;;;6.10;99.90;;;;;;5040135;28;20370;-78
2022/12/20 01:26:50;;;;;;;11.87;7.70;;;6.10;99.90;;;;;;5037402;28;20310;-78
2022/12/20 01:29:20;;;;;;;11.37;8.23;;;6.00;99.90;;;;;;5031269;28;20228;-78
2022/12/20 01:31:47;;;;;;;10.77;7.13;;;6.10;99.90;;;;;;5045319;28;21008;-78
2022/12/20 01:34:15;;;;;;;11.00;7.23;;;6.00;99.90;;;;;;5042039;28;20222;-78
2022/12/20 01:36:42;;;;;;;8.03;6.90;;;6.10;99.90;;;;;;5028079;28;20262;-78
2022/12/20 01:39:13;;;;;;;11.43;7.60;;;6.10;99.90;;;;;;5040721;28;20234;-78
2022/12/20 01:41:41;;;;;;;9.37;7.07;;;6.10;99.90;;;;;;5032569;28;20232;-77
2022/12/20 01:44:41;;;;;;;11.60;7.30;;;6.20;99.90;;;;;;5028755;28;20255;-78
2022/12/20 01:47:10;;;;;;;10.20;8.30;;;6.20;99.90;;;;;;5034410;28;20230;-78
2022/12/20 01:49:42;;;;;;;9.83;6.80;;;6.30;99.90;;;;;;5040612;28;20309;-78
2022/12/20 01:52:12;;;;;;;9.47;7.27;;;6.30;99.90;;;;;;5032427;28;20601;-78
2022/12/20 01:54:42;;;;;;;9.80;7.47;;;6.30;99.90;;;;;;5034220;28;20215;-78
2022/12/20 01:57:15;;;;;;;9.93;7.67;;;6.30;99.90;;;;;;5039293;28;20231;-77
2022/12/20 01:59:44;;;;;;;11.67;7.33;;;6.40;99.90;;;;;;5042665;28;20276;-78
2022/12/20 02:02:13;;;;;;;9.27;7.30;;;6.40;99.90;;;;;;5029221;28;20752;-77
2022/12/20 02:04:42;;;;;;;8.73;7.03;;;6.40;99.90;;;;;;5038922;28;20243;-78
2022/12/20 02:07:12;;;;;;;10.33;7.43;;;6.40;99.90;;;;;;5032370;28;20224;-78
2022/12/20 02:09:40;;;;;;;10.83;6.90;;;6.40;99.90;;;;;;5025136;28;20228;-78
2022/12/20 02:12:11;;;;;;;10.40;6.80;;;6.40;99.90;;;;;;5035493;28;20909;-78
2022/12/20 02:15:03;;;;;;;12.27;7.53;;;6.40;99.90;;;;;;5038511;28;20227;-79
2022/12/20 02:17:44;;;;;;;8.93;6.90;;;6.40;99.90;;;;;;5040955;28;20310;-78
2022/12/20 02:20:45;;;;;;;9.87;6.80;;;6.50;99.90;;;;;;5036669;28;20222;-78
2022/12/20 02:23:31;;;;;;;11.00;6.93;;;6.50;99.90;;;;;;5033117;28;20550;-78
2022/12/20 02:26:14;;;;;;;11.97;7.67;;;6.50;99.90;;;;;;5046448;28;20225;-78
2022/12/20 02:29:06;;;;;;;9.50;6.33;;;6.60;99.90;;;;;;5023643;28;20315;-77
2022/12/20 02:31:42;;;;;;;8.73;6.63;;;6.60;99.90;;;;;;5034188;28;20743;-78
2022/12/20 02:34:10;;;;;;;8.93;6.70;;;6.70;99.90;;;;;;5023000;28;20233;-78
2022/12/20 02:36:38;;;;;;;10.10;6.20;;;6.70;99.90;;;;;;5037263;28;20217;-78
2022/12/20 02:39:06;;;;;;;11.03;6.43;;;6.70;99.90;;;;;;5035606;28;20218;-78
2022/12/20 02:41:37;;;;;;;7.43;6.03;;;6.80;99.90;;;;;;5028700;28;20217;-78
2022/12/20 02:46:58;;;;;;;10.23;6.67;;;6.90;99.90;;;;;;5046492;28;20232;-78
2022/12/20 02:49:29;;;;;;;8.23;6.73;;;6.90;99.90;;;;;;5042055;28;20232;-78
2022/12/20 02:51:58;;;;;;;8.70;6.10;;;6.90;99.90;;;;;;5041549;28;20282;-77
2022/12/20 02:54:26;;;;;;;8.13;6.63;;;6.90;99.90;;;;;;5032863;28;20319;-78
2022/12/20 02:56:57;;;;;;;8.87;6.17;;;6.90;99.90;;;;;;5032630;28;20264;-77
2022/12/20 02:59:29;;;;;;;8.13;6.20;;;7.00;99.90;;;;;;5020384;28;20899;-77
2022/12/20 03:01:58;;;;;;;9.67;6.20;;;7.00;99.90;;;;;;5047290;28;20228;-78
2022/12/20 03:04:28;;;;;;;9.50;6.67;;;7.00;99.90;;;;;;5036519;28;20220;-79
2022/12/20 03:06:57;;;;;;;9.80;5.80;;;7.00;99.90;;;;;;5039429;28;20238;-78
2022/12/20 03:09:24;;;;;;;13.53;6.30;;;7.10;99.90;;;;;;5038456;28;20252;-78
2022/12/20 03:11:51;;;;;;;10.03;6.60;;;7.10;99.90;;;;;;5034590;28;20238;-79
2022/12/20 03:14:18;;;;;;;6.87;5.47;;;7.20;99.90;;;;;;5038685;28;20979;-79
2022/12/20 03:16:46;;;;;;;7.40;5.40;;;7.20;99.90;;;;;;5041169;28;20220;-79
2022/12/20 03:19:15;;;;;;;7.77;5.90;;;7.20;99.90;;;;;;5044573;28;20234;-78
2022/12/20 03:21:41;;;;;;;7.93;6.27;;;7.20;99.90;;;;;;5041507;28;20894;-78
2022/12/20 03:24:09;;;;;;;7.03;5.50;;;7.30;99.90;;;;;;5037722;28;20227;-78
2022/12/20 03:26:37;;;;;;;7.73;5.67;;;7.30;99.90;;;;;;5043565;28;20808;-77
2022/12/20 03:29:04;;;;;;;7.37;5.80;;;7.30;99.90;;;;;;5034724;28;20221;-77
2022/12/20 03:31:31;;;;;;;8.17;5.70;;;7.30;99.90;;;;;;5031856;28;20224;-79
2022/12/20 03:33:58;;;;;;;9.50;5.73;;;7.30;99.90;;;;;;5029364;28;20580;-79
2022/12/20 03:36:27;;;;;;;6.83;5.47;;;7.30;99.90;;;;;;5042893;28;20222;-79
2022/12/20 03:38:58;;;;;;;8.73;5.83;;;7.40;99.90;;;;;;5041979;28;20329;-78
2022/12/20 03:41:27;;;;;;;7.83;5.83;;;7.40;99.90;;;;;;5041467;28;20219;-77
2022/12/20 03:43:54;;;;;;;7.37;5.73;;;7.40;99.90;;;;;;5041237;28;20232;-78
2022/12/20 03:46:22;;;;;;;9.53;6.20;;;7.40;99.90;;;;;;5026134;28;20586;-78
2022/12/20 03:48:49;;;;;;;7.80;5.73;;;7.50;99.90;;;;;;5043638;28;20810;-78
2022/12/20 03:51:16;;;;;;;7.90;5.87;;;7.40;99.90;;;;;;5042538;28;20228;-78
2022/12/20 03:53:44;;;;;;;7.10;5.17;;;7.50;99.90;;;;;;5036130;28;20230;-78
2022/12/20 03:56:13;;;;;;;7.67;5.30;;;7.50;99.90;;;;;;5039824;28;20233;-78
2022/12/20 03:58:41;;;;;;;7.87;5.67;;;7.50;99.90;;;;;;5040891;28;20219;-77
2022/12/20 04:01:22;;;;;;;7.97;5.90;;;7.50;99.90;;;;;;5042970;28;20299;-77
2022/12/20 04:03:50;;;;;;;9.17;6.40;;;7.50;99.90;;;;;;5030780;28;20226;-77
2022/12/20 04:06:18;;;;;;;7.30;5.67;;;7.50;99.90;;;;;;5034321;28;20310;-77
2022/12/20 04:08:46;;;;;;;9.10;5.27;;;7.50;99.90;;;;;;5038375;28;20698;-78
2022/12/20 04:11:20;;;;;;;7.17;5.37;;;7.60;99.90;;;;;;5038108;28;20229;-78
2022/12/20 04:13:53;;;;;;;6.77;5.00;;;7.60;99.90;;;;;;5055003;28;20244;-78
2022/12/20 04:16:21;;;;;;;8.60;5.67;;;7.60;99.90;;;;;;5046701;28;20221;-78
2022/12/20 04:18:48;;;;;;;6.13;5.33;;;7.60;99.90;;;;;;5058181;28;20263;-78
2022/12/20 04:21:15;;;;;;;8.37;5.37;;;7.60;99.90;;;;;;5047484;28;20638;-77
2022/12/20 04:23:47;;;;;;;7.63;5.60;;;7.60;99.90;;;;;;5039514;28;20224;-77
2022/12/20 04:26:15;;;;;;;8.00;5.90;;;7.70;99.90;;;;;;5041967;28;20307;-77
2022/12/20 04:28:42;;;;;;;6.70;5.63;;;7.70;99.90;;;;;;5040949;28;20733;-77
2022/12/20 04:31:11;;;;;;;7.87;5.60;;;7.60;99.90;;;;;;5042970;28;20896;-78
2022/12/20 04:33:39;;;;;;;12.87;6.13;;;7.60;99.90;;;;;;5041203;28;20612;-77
2022/12/20 04:36:07;;;;;;;8.03;5.80;;;7.60;99.90;;;;;;5036816;28;20259;-77
2022/12/20 04:38:34;;;;;;;6.13;5.20;;;7.50;99.90;;;;;;5025777;28;20691;-77
2022/12/20 04:41:02;;;;;;;8.93;5.73;;;7.50;99.90;;;;;;5037251;28;20235;-77
2022/12/20 04:43:39;;;;;;;8.83;6.27;;;7.50;99.90;;;;;;5035581;28;20785;-77
2022/12/20 04:46:06;;;;;;;9.47;6.50;;;7.50;99.90;;;;;;5041638;28;20613;-77
2022/12/20 04:48:33;;;;;;;8.37;6.27;;;7.40;99.90;;;;;;5038379;28;20238;-78
2022/12/20 04:51:01;;;;;;;10.00;6.50;;;7.40;99.90;;;;;;5042026;28;20219;-77
2022/12/20 04:53:48;;;;;;;9.20;6.23;;;7.40;99.90;;;;;;5012628;28;20238;-78
2022/12/20 04:56:42;;;;;;;8.87;6.30;;;7.30;99.90;;;;;;5035029;28;20270;-78
2022/12/20 04:59:12;;;;;;;9.03;6.17;;;7.30;99.90;;;;;;5041309;28;20230;-77
2022/12/20 05:01:41;;;;;;;11.03;6.63;;;7.30;99.90;;;;;;5030655;28;20221;-76
2022/12/20 05:04:08;;;;;;;9.10;6.60;;;7.30;99.90;;;;;;5027559;28;20217;-77
2022/12/20 05:06:37;;;;;;;9.53;6.93;;;7.20;99.90;;;;;;5031792;28;20254;-77
2022/12/20 05:09:04;;;;;;;8.43;6.30;;;7.20;99.90;;;;;;5034374;28;20224;-77
2022/12/20 05:11:35;;;;;;;10.00;6.83;;;7.20;99.90;;;;;;5038322;28;20217;-76
2022/12/20 05:14:09;;;;;;;10.27;6.97;;;7.10;99.90;;;;;;5033567;28;20219;-76
2022/12/20 05:16:37;;;;;;;9.27;6.83;;;7.10;99.90;;;;;;5038945;28;20335;-77
2022/12/20 05:19:06;;;;;;;9.57;7.27;;;7.10;99.90;;;;;;5035720;28;20253;-77
2022/12/20 05:27:28;;;;;;;9.03;7.00;;;7.00;99.90;;;;;;5013425;28;20227;-79
2022/12/20 05:29:56;;;;;;;11.73;7.67;;;6.90;99.90;;;;;;5048828;28;20789;-80
2022/12/20 05:32:24;;;;;;;9.60;6.63;;;7.00;99.90;;;;;;5033305;28;20327;-79
2022/12/20 05:34:53;;;;;;;13.23;7.50;;;6.90;99.90;;;;;;5040768;28;20231;-80
2022/12/20 05:37:20;;;;;;;9.93;7.20;;;6.90;99.90;;;;;;5049570;28;20227;-79
2022/12/20 05:39:47;;;;;;;11.00;7.30;;;6.90;99.90;;;;;;5036320;28;20230;-78
2022/12/20 05:42:20;;;;;;;13.33;7.93;;;6.80;99.90;;;;;;5037405;28;20225;-80
2022/12/20 05:44:50;;;;;;;12.57;7.80;;;6.80;99.90;;;;;;5025832;28;20243;-81
2022/12/20 05:47:18;;;;;;;11.63;8.03;;;6.80;99.90;;;;;;5033142;28;20265;-79
2022/12/20 05:49:45;;;;;;;11.67;7.10;;;6.80;99.90;;;;;;5026969;28;20318;-81
2022/12/20 05:52:13;;;;;;;11.27;7.97;;;6.80;99.90;;;;;;5031179;28;20340;-79
2022/12/20 05:54:41;;;;;;;16.70;8.27;;;6.80;99.90;;;;;;5036698;28;20221;-77
2022/12/20 05:57:11;;;;;;;10.53;8.37;;;6.80;99.90;;;;;;5024786;28;20271;-79
2022/12/20 05:59:40;;;;;;;11.53;8.27;;;6.70;99.90;;;;;;5026197;28;20221;-78
2022/12/20 06:02:18;;;;;;;15.73;8.50;;;6.80;99.90;;;;;;5034558;28;20223;-79
2022/12/20 06:04:48;;;;;;;12.90;8.13;;;6.80;99.90;;;;;;5046950;28;20303;-79
2022/12/20 06:07:23;;;;;;;11.67;8.20;;;6.70;99.90;;;;;;5034237;28;20227;-77
2022/12/20 06:09:55;;;;;;;10.70;7.67;;;6.70;99.90;;;;;;5024560;28;20224;-78
2022/12/20 06:12:26;;;;;;;11.23;8.10;;;6.70;99.90;;;;;;5051063;28;20447;-77
2022/12/20 06:14:53;;;;;;;10.97;7.93;;;6.70;99.90;;;;;;5035283;28;21033;-78
2022/12/20 06:17:21;;;;;;;10.90;8.30;;;6.60;99.90;;;;;;5042196;28;20282;-78
2022/12/20 06:19:48;;;;;;;10.70;8.73;;;6.60;99.90;;;;;;5042371;28;20900;-78
2022/12/20 06:22:16;;;;;;;13.30;8.47;;;6.60;99.90;;;;;;5041986;28;20251;-78
2022/12/20 06:24:48;;;;;;;14.10;8.67;;;6.60;99.90;;;;;;5036431;28;20273;-77
2022/12/20 06:27:15;;;;;;;12.97;8.60;;;6.60;99.90;;;;;;5042558;28;20309;-78
2022/12/20 06:29:48;;;;;;;10.77;8.47;;;6.60;99.90;;;;;;5019900;28;20875;-78
2022/12/20 06:32:15;;;;;;;11.37;8.50;;;6.60;99.90;;;;;;5033268;28;20273;-77
2022/12/20 06:34:44;;;;;;;11.03;8.33;;;6.60;99.90;;;;;;5031297;28;20228;-78
2022/12/20 06:37:12;;;;;;;13.33;8.50;;;6.60;99.90;;;;;;5032879;28;20646;-78
2022/12/20 06:39:39;;;;;;;16.80;9.13;;;6.60;99.90;;;;;;5038189;28;21051;-79
2022/12/20 06:42:08;;;;;;;11.63;8.47;;;6.60;99.90;;;;;;5039046;28;20221;-78
2022/12/20 06:44:36;;;;;;;11.03;8.27;;;6.60;99.90;;;;;;5041746;28;20226;-77
2022/12/20 06:47:03;;;;;;;14.43;9.87;;;6.70;99.90;;;;;;5042863;28;20244;-79
2022/12/20 06:49:30;;;;;;;25.80;16.13;;;6.70;99.90;;;;;;5056946;28;20846;-78
2022/12/20 06:51:58;;;;;;;15.23;9.60;;;6.70;99.90;;;;;;5043443;28;20611;-78
2022/12/20 06:54:38;;;;;;;10.33;7.83;;;6.70;99.90;;;;;;5045290;28;20255;-78
2022/12/20 06:57:05;;;;;;;11.37;8.67;;;6.80;99.90;;;;;;5041119;28;20233;-78
2022/12/20 06:59:32;;;;;;;9.87;8.37;;;6.80;99.90;;;;;;5042958;28;20506;-78
2022/12/20 07:01:59;;;;;;;13.20;8.87;;;6.80;99.90;;;;;;5038361;28;20251;-78
2022/12/20 07:04:26;;;;;;;12.63;9.10;;;6.80;99.90;;;;;;5038317;28;20769;-77
2022/12/20 07:06:52;;;;;;;11.60;7.73;;;6.80;99.90;;;;;;5036894;28;20232;-77
2022/12/20 07:09:20;;;;;;;11.40;7.97;;;6.80;99.90;;;;;;5039478;28;20234;-77
2022/12/20 07:11:47;;;;;;;12.27;8.53;;;6.90;99.90;;;;;;5038694;28;20307;-79
2022/12/20 07:14:14;;;;;;;12.23;8.43;;;6.80;99.90;;;;;;5035544;28;20233;-78
2022/12/20 07:16:42;;;;;;;12.10;8.47;;;6.90;99.90;;;;;;5043056;28;20223;-78
2022/12/20 07:19:10;;;;;;;11.23;8.13;;;6.90;99.90;;;;;;5044690;28;20719;-78
2022/12/20 07:21:37;;;;;;;15.40;8.67;;;6.90;99.90;;;;;;5032174;28;20700;-77
2022/12/20 07:24:04;;;;;;;10.47;8.40;;;7.00;99.90;;;;;;5043949;28;20289;-78
2022/12/20 07:26:32;;;;;;;12.97;8.63;;;7.00;99.90;;;;;;5042266;28;20223;-76
2022/12/20 07:28:59;;;;;;;12.83;8.53;;;7.00;99.90;;;;;;5036676;28;20316;-78
2022/12/20 07:31:26;;;;;;;13.03;8.90;;;7.00;99.90;;;;;;5039063;28;20230;-77
2022/12/20 07:33:53;;;;;;;11.87;8.30;;;7.10;99.90;;;;;;5050927;28;20888;-77
2022/12/20 07:36:19;;;;;;;11.20;8.43;;;7.10;99.90;;;;;;5041842;28;20234;-78
2022/12/20 07:38:47;;;;;;;13.83;8.50;;;7.10;99.90;;;;;;5047673;28;20221;-78
2022/12/20 07:41:16;;;;;;;14.10;9.07;;;7.10;99.90;;;;;;5041896;28;20228;-77
2022/12/20 07:43:45;;;;;;;12.53;8.90;;;7.10;99.90;;;;;;5038200;28;20231;-77
2022/12/20 07:46:14;;;;;;;11.93;8.93;;;7.20;99.90;;;;;;5057103;28;20223;-78
2022/12/20 07:48:41;;;;;;;12.70;9.33;;;7.20;99.90;;;;;;5045092;28;20230;-78
2022/12/20 07:51:11;;;;;;;11.03;8.87;;;7.20;99.90;;;;;;5039766;28;20709;-77
2022/12/20 07:53:40;;;;;;;13.40;10.07;;;7.20;99.90;;;;;;5041692;28;20232;-78
2022/12/20 07:56:08;;;;;;;13.17;8.90;;;7.20;99.90;;;;;;5040930;28;20236;-78
2022/12/20 07:58:37;;;;;;;13.20;9.43;;;7.10;99.90;;;;;;5036428;28;20446;-77
2022/12/20 08:01:05;;;;;;;13.20;9.73;;;7.20;99.90;;;;;;5032908;28;20223;-77
2022/12/20 08:03:37;;;;;;;11.70;8.90;;;7.10;99.90;;;;;;5039022;28;20711;-78
2022/12/20 08:06:07;;;;;;;13.57;9.07;;;7.10;99.90;;;;;;5044961;28;20528;-78
2022/12/20 08:08:36;;;;;;;12.77;9.27;;;7.20;99.90;;;;;;5050035;28;20240;-78
2022/12/20 08:11:06;;;;;;;11.00;9.33;;;7.20;99.90;;;;;;5031251;28;20250;-78
2022/12/20 08:13:33;;;;;;;14.13;9.90;;;7.20;99.90;;;;;;5040224;28;20923;-78
2022/12/20 08:16:00;;;;;;;13.53;9.00;;;7.20;99.90;;;;;;5031793;28;20336;-78
2022/12/20 08:18:28;;;;;;;11.90;9.23;;;7.20;99.90;;;;;;5040170;28;20688;-79
2022/12/20 08:20:55;;;;;;;12.33;8.87;;;7.20;99.90;;;;;;5048507;28;20591;-78
2022/12/20 08:23:21;;;;;;;14.50;9.23;;;7.20;99.90;;;;;;5037189;28;20227;-77
2022/12/20 08:25:49;;;;;;;13.20;8.50;;;7.20;99.90;;;;;;5057079;28;20227;-78
2022/12/20 08:28:15;;;;;;;13.13;9.10;;;7.20;99.90;;;;;;5049088;28;20248;-78
2022/12/20 08:30:42;;;;;;;12.53;9.43;;;7.20;99.90;;;;;;5047161;28;20218;-79
2022/12/20 08:33:09;;;;;;;12.43;9.10;;;7.20;99.90;;;;;;5047318;28;20229;-79
2022/12/20 08:35:37;;;;;;;13.20;8.90;;;7.20;99.90;;;;;;5041717;28;20709;-78
2022/12/20 08:38:04;;;;;;;13.83;8.13;;;7.20;99.90;;;;;;5043209;28;20221;-78
2022/12/20 08:40:30;;;;;;;11.33;8.57;;;7.30;99.90;;;;;;5049283;28;20255;-77
2022/12/20 08:42:58;;;;;;;12.47;8.80;;;7.20;99.90;;;;;;5041712;28;20238;-78
2022/12/20 08:45:25;;;;;;;12.47;8.60;;;7.30;99.90;;;;;;5047393;28;20243;-78
2022/12/20 08:47:53;;;;;;;12.03;8.40;;;7.30;99.90;;;;;;5044447;28;20227;-78
2022/12/20 08:50:19;;;;;;;10.33;8.40;;;7.30;99.90;;;;;;5040240;28;20735;-78
2022/12/20 08:52:47;;;;;;;12.83;8.90;;;7.30;99.90;;;;;;5041402;28;20229;-78
2022/12/20 08:55:14;;;;;;;12.27;8.73;;;7.40;99.90;;;;;;5041210;28;20224;-79
2022/12/20 08:57:41;;;;;;;12.73;9.40;;;7.40;99.90;;;;;;5048068;28;20225;-77
2022/12/20 09:00:09;;;;;;;15.53;10.87;;;7.40;99.90;;;;;;5028721;28;20962;-78
2022/12/20 09:02:40;;;;;;;14.73;10.53;;;7.40;99.90;;;;;;5047720;28;20229;-78
2022/12/20 09:05:07;;;;;;;15.17;11.23;;;7.50;99.90;;;;;;5046647;28;20217;-78
2022/12/20 09:07:33;;;;;;;11.57;8.90;;;7.50;99.90;;;;;;5048761;28;20247;-79
2022/12/20 09:10:02;;;;;;;13.00;9.00;;;7.60;99.90;;;;;;5039216;28;20231;-78
2022/12/20 09:12:28;;;;;;;14.20;8.30;;;7.60;99.90;;;;;;5046440;28;20227;-78
2022/12/20 09:14:56;;;;;;;13.10;8.77;;;7.60;99.90;;;;;;5038641;28;20404;-79
2022/12/20 09:17:23;;;;;;;12.67;8.97;;;7.60;99.90;;;;;;5048466;28;20217;-78
2022/12/20 09:19:49;;;;;;;11.80;8.50;;;7.50;99.90;;;;;;5033637;28;20258;-78
2022/12/20 09:22:16;;;;;;;11.87;8.80;;;7.50;99.90;;;;;;5035185;28;20693;-79
2022/12/20 09:24:43;;;;;;;11.30;8.43;;;7.60;99.90;;;;;;5037963;28;20283;-79
2022/12/20 09:27:11;;;;;;;14.13;9.13;;;7.60;99.90;;;;;;5043790;28;20263;-79
2022/12/20 09:29:38;;;;;;;11.93;8.47;;;7.60;99.90;;;;;;5034592;28;20404;-78
2022/12/20 09:32:05;;;;;;;12.63;8.40;;;7.70;99.90;;;;;;5035955;28;20221;-77
2022/12/20 09:34:32;;;;;;;10.40;8.43;;;7.70;99.90;;;;;;5047059;28;20244;-78
2022/12/20 09:36:59;;;;;;;11.33;7.97;;;7.70;99.90;;;;;;5044864;28;20666;-76
2022/12/20 09:39:25;;;;;;;12.20;8.70;;;7.80;99.90;;;;;;5042154;28;20331;-78
2022/12/20 09:41:53;;;;;;;12.20;8.03;;;7.80;99.90;;;;;;5046581;28;20228;-79
2022/12/20 09:44:25;;;;;;;16.13;8.33;;;7.90;99.90;;;;;;5034725;28;20266;-77
2022/12/20 09:46:58;;;;;;;15.13;8.80;;;7.90;99.90;;;;;;5031930;28;20261;-77
2022/12/20 09:49:31;;;;;;;12.33;9.67;;;7.90;99.90;;;;;;5045587;28;20242;-77
2022/12/20 09:52:48;;;;;;;11.63;8.33;;;7.90;99.90;;;;;;5032970;28;20527;-76
2022/12/20 09:55:23;;;;;;;11.17;8.17;;;8.00;99.90;;;;;;4987384;28;20643;-76
2022/12/20 09:58:04;;;;;;;12.07;8.10;;;8.10;99.90;;;;;;4990697;28;20422;-78
2022/12/20 10:00:43;;;;;;;18.67;11.60;;;8.10;99.90;;;;;;5018200;28;20217;-77
2022/12/20 10:03:17;;;;;;;19.63;12.37;;;8.10;99.90;;;;;;5041171;28;20227;-77
2022/12/20 10:05:50;;;;;;;11.43;7.93;;;8.20;99.90;;;;;;5035365;28;20228;-77
2022/12/20 10:08:37;;;;;;;10.70;7.57;;;8.30;99.90;;;;;;5042410;28;20223;-78
2022/12/20 10:11:10;;;;;;;11.07;7.80;;;8.30;99.90;;;;;;5042795;28;20253;-78
2022/12/20 10:13:47;;;;;;;10.63;7.67;;;8.40;99.90;;;;;;5043318;28;20857;-81
2022/12/20 10:16:27;;;;;;;11.00;7.40;;;8.40;99.90;;;;;;5043977;28;20236;-81
2022/12/20 10:19:01;;;;;;;14.20;8.50;;;8.40;99.90;;;;;;5043743;28;20992;-81
2022/12/20 10:21:37;;;;;;;12.20;8.07;;;8.50;99.90;;;;;;5047232;28;20277;-81
2022/12/20 10:24:10;;;;;;;9.83;8.00;;;8.40;99.90;;;;;;5056925;28;20258;-81
2022/12/20 10:26:37;;;;;;;12.53;9.03;;;8.50;99.90;;;;;;5060339;28;20222;-81
2022/12/20 10:29:03;;;;;;;11.73;8.10;;;8.40;99.90;;;;;;5036977;28;20226;-82
2022/12/20 10:31:31;;;;;;;12.83;8.23;;;8.50;99.90;;;;;;5036278;28;20241;-82
2022/12/20 10:33:58;;;;;;;11.53;8.30;;;8.40;99.90;;;;;;5034841;28;20254;-81
2022/12/20 10:36:27;;;;;;;13.87;8.23;;;8.50;99.90;;;;;;5043728;28;20249;-81
2022/12/20 10:38:57;;;;;;;10.87;7.60;;;8.50;99.90;;;;;;5045642;28;20615;-82
2022/12/20 10:41:26;;;;;;;9.37;7.77;;;8.50;99.90;;;;;;5048409;28;20232;-81
2022/12/20 10:44:01;;;;;;;9.60;7.90;;;8.50;99.90;;;;;;5038016;28;20279;-82
2022/12/20 10:46:42;;;;;;;11.60;7.90;;;8.50;99.90;;;;;;5039854;28;20226;-81
2022/12/20 10:49:28;;;;;;;12.07;7.97;;;8.50;99.90;;;;;;5040235;28;20223;-85
2022/12/20 10:51:57;;;;;;;11.60;7.97;;;8.50;99.90;;;;;;5047892;28;20596;-81
2022/12/20 10:54:29;;;;;;;11.80;7.57;;;8.50;99.90;;;;;;5041709;28;21888;-81
2022/12/20 10:56:58;;;;;;;11.93;7.47;;;8.50;99.90;;;;;;5033373;28;20785;-80
2022/12/20 10:59:31;;;;;;;10.53;7.30;;;8.50;99.90;;;;;;5033014;28;20239;-80
2022/12/20 11:01:59;;;;;;;9.27;7.60;;;8.50;99.90;;;;;;5021471;28;20269;-80
2022/12/20 11:04:29;;;;;;;10.90;6.80;;;8.50;99.90;;;;;;5043890;28;20305;-80
2022/12/20 11:06:57;;;;;;;10.77;7.33;;;8.60;99.90;;;;;;5034365;28;20275;-81
2022/12/20 11:09:32;;;;;;;10.53;7.60;;;8.60;99.90;;;;;;5040964;28;20289;-81
2022/12/20 11:12:14;;;;;;;8.97;7.23;;;8.60;99.90;;;;;;5025897;28;20218;-80
2022/12/20 11:14:47;;;;;;;10.67;7.00;;;8.60;99.90;;;;;;5034743;28;20226;-81
2022/12/20 11:17:32;;;;;;;9.00;6.80;;;8.70;99.90;;;;;;5035940;28;20221;-80
2022/12/20 11:20:11;;;;;;;11.40;7.30;;;8.70;99.90;;;;;;5036171;28;20316;-80
2022/12/20 11:22:50;;;;;;;9.20;7.10;;;8.70;99.90;;;;;;5025747;28;20246;-82
2022/12/20 11:25:35;;;;;;;9.80;7.03;;;8.70;99.90;;;;;;5025059;28;20734;-82
2022/12/20 11:28:25;;;;;;;9.70;7.07;;;8.80;99.90;;;;;;5035382;28;20222;-81
2022/12/20 11:31:01;;;;;;;10.00;6.23;;;8.80;99.90;;;;;;5053971;28;20308;-82
2022/12/20 11:33:41;;;;;;;8.93;6.37;;;8.80;99.90;;;;;;5024600;28;20743;-81
2022/12/20 11:36:18;;;;;;;9.40;6.50;;;8.80;99.90;;;;;;5039121;28;20259;-82
2022/12/20 11:38:50;;;;;;;8.63;7.10;;;8.90;99.90;;;;;;5045080;28;20227;-81
2022/12/20 11:41:29;;;;;;;10.50;7.07;;;8.80;99.90;;;;;;5033226;28;20217;-82
2022/12/20 11:44:12;;;;;;;10.43;6.63;;;8.80;99.90;;;;;;5026474;28;20289;-82
2022/12/20 11:46:56;;;;;;;9.33;6.80;;;8.90;99.90;;;;;;5033065;28;20226;-82
2022/12/20 11:49:50;;;;;;;7.80;6.50;;;8.90;99.90;;;;;;5038007;28;20760;-81
2022/12/20 11:52:25;;;;;;;16.60;11.30;;;8.90;99.90;;;;;;5040726;28;20408;-81
2022/12/20 11:55:02;;;;;;;10.80;8.30;;;8.90;99.90;;;;;;5031146;28;20307;-81
2022/12/20 11:57:35;;;;;;;10.30;7.33;;;8.90;99.90;;;;;;5040631;28;20235;-81
2022/12/20 12:00:02;;;;;;;8.53;6.83;;;9.00;99.90;;;;;;5040378;28;20331;-81
2022/12/20 12:02:44;;;;;;;9.37;7.50;;;8.90;99.90;;;;;;5041434;28;20621;-82
2022/12/20 12:05:21;;;;;;;10.27;7.07;;;8.90;99.90;;;;;;5039019;28;20230;-83
2022/12/20 12:07:53;;;;;;;8.67;6.00;;;9.00;99.90;;;;;;5033389;28;20256;-82
2022/12/20 12:10:23;;;;;;;7.73;5.83;;;8.90;99.90;;;;;;5052184;28;20253;-81
2022/12/20 12:12:57;;;;;;;9.07;6.10;;;8.90;99.90;;;;;;5043960;28;20592;-81
2022/12/20 12:15:31;;;;;;;9.93;6.10;;;8.90;99.90;;;;;;5031051;28;20249;-81
2022/12/20 12:18:03;;;;;;;10.43;7.57;;;8.90;99.90;;;;;;5040927;28;20704;-81
2022/12/20 12:20:40;;;;;;;7.93;6.37;;;8.90;99.90;;;;;;5036808;28;20226;-81
2022/12/20 12:23:16;;;;;;;9.33;6.03;;;8.90;99.90;;;;;;5026003;28;20285;-82
2022/12/20 12:25:42;;;;;;;8.67;6.50;;;8.90;99.90;;;;;;5043794;28;20813;-82
2022/12/20 12:28:12;;;;;;;9.13;6.07;;;8.90;99.90;;;;;;5036530;28;20315;-82
2022/12/20 12:30:43;;;;;;;8.10;6.00;;;8.80;99.90;;;;;;5036769;28;20245;-82
2022/12/20 12:33:15;;;;;;;7.87;6.20;;;8.70;99.90;;;;;;5035800;28;20229;-82
2022/12/20 12:36:06;;;;;;;8.70;6.70;;;8.80;99.90;;;;;;5047400;28;20244;-84
2022/12/20 12:38:55;;;;;;;7.67;6.03;;;8.70;99.90;;;;;;5049764;28;20237;-83
2022/12/20 12:41:50;;;;;;;9.17;6.10;;;8.70;99.90;;;;;;5056345;28;20224;-82
2022/12/20 12:44:41;;;;;;;8.03;5.73;;;8.60;99.90;;;;;;5029930;28;20763;-83
2022/12/20 12:47:15;;;;;;;8.27;5.43;;;8.60;99.90;;;;;;5032691;28;20261;-83
2022/12/20 12:49:47;;;;;;;7.90;6.00;;;8.60;99.90;;;;;;5033926;28;20307;-83
2022/12/20 12:52:29;;;;;;;9.83;6.73;;;8.50;99.90;;;;;;5038911;28;20225;-84
2022/12/20 12:54:56;;;;;;;11.40;6.80;;;8.40;99.90;;;;;;5039887;28;20725;-83
2022/12/20 12:57:22;;;;;;;8.73;7.20;;;8.40;99.90;;;;;;5042649;28;20222;-84
2022/12/20 12:59:50;;;;;;;10.03;6.80;;;8.40;99.90;;;;;;5035880;28;20227;-83
2022/12/20 13:02:50;;;;;;;9.53;6.87;;;8.40;99.90;;;;;;5032529;28;20225;-83
2022/12/20 13:05:36;;;;;;;12.47;6.87;;;8.30;99.90;;;;;;5040241;28;20522;-84
2022/12/20 13:08:16;;;;;;;8.43;6.60;;;8.30;99.90;;;;;;5041694;28;20224;-84
2022/12/20 13:11:00;;;;;;;10.40;6.80;;;8.30;99.90;;;;;;5040285;28;20715;-83
2022/12/20 13:13:27;;;;;;;8.97;6.77;;;8.30;99.90;;;;;;5022162;28;20669;-83
2022/12/20 13:16:11;;;;;;;9.60;7.13;;;8.30;99.90;;;;;;5040155;28;20240;-83
2022/12/20 13:18:38;;;;;;;11.43;7.00;;;8.30;99.90;;;;;;5043415;28;20228;-82